sensor_id;sensor_type;location;lat;lon;timestamp;temperature;humidity
9103;DHT22;4587;51.434;6.788;2022-07-23T00:00:15;18.10;99.90
9103;DHT22;4587;51.434;6.788;2022-07-23T00:02:40;18.00;99.90
9103;DHT22;4587;51.434;6.788;2022-07-23T00:05:06;18.00;99.90
9103;DHT22;4587;51.434;6.788;2022-07-23T00:07:32;17.90;99.90
9103;DHT22;4587;51.434;6.788;2022-07-23T00:09:58;17.90;99.90
9103;DHT22;4587;51.434;6.788;2022-07-23T00:12:24;17.90;99.90
9103;DHT22;4587;51.434;6.788;2022-07-23T00:14:49;17.90;99.90
9103;DHT22;4587;51.434;6.788;2022-07-23T00:17:15;17.90;99.90
9103;DHT22;4587;51.434;6.788;2022-07-23T00:19:40;17.90;99.90
9103;DHT22;4587;51.434;6.788;2022-07-23T00:22:06;17.90;99.90
9103;DHT22;4587;51.434;6.788;2022-07-23T00:24:32;17.90;99.90
9103;DHT22;4587;51.434;6.788;2022-07-23T00:26:57;17.90;99.90
9103;DHT22;4587;51.434;6.788;2022-07-23T00:29:23;17.80;99.90
9103;DHT22;4587;51.434;6.788;2022-07-23T00:31:48;17.80;99.90
9103;DHT22;4587;51.434;6.788;2022-07-23T00:34:14;17.80;99.90
9103;DHT22;4587;51.434;6.788;2022-07-23T00:36:39;17.80;99.90
9103;DHT22;4587;51.434;6.788;2022-07-23T00:39:06;17.80;99.90
9103;DHT22;4587;51.434;6.788;2022-07-23T00:41:32;17.80;99.90
9103;DHT22;4587;51.434;6.788;2022-07-23T00:44:14;17.80;99.90
9103;DHT22;4587;51.434;6.788;2022-07-23T00:46:46;17.80;99.90
9103;DHT22;4587;51.434;6.788;2022-07-23T00:49:11;17.80;99.90
9103;DHT22;4587;51.434;6.788;2022-07-23T00:51:37;17.80;99.90
9103;DHT22;4587;51.434;6.788;2022-07-23T00:54:03;17.80;99.90
9103;DHT22;4587;51.434;6.788;2022-07-23T00:56:29;17.80;99.90
9103;DHT22;4587;51.434;6.788;2022-07-23T00:58:55;17.80;99.90
9103;DHT22;4587;51.434;6.788;2022-07-23T01:01:21;17.80;99.90
9103;DHT22;4587;51.434;6.788;2022-07-23T01:03:47;17.70;99.90
9103;DHT22;4587;51.434;6.788;2022-07-23T01:06:13;17.70;99.90
9103;DHT22;4587;51.434;6.788;2022-07-23T01:08:39;17.70;99.90
9103;DHT22;4587;51.434;6.788;2022-07-23T01:11:04;17.60;99.90
9103;DHT22;4587;51.434;6.788;2022-07-23T01:13:30;17.60;99.90
9103;DHT22;4587;51.434;6.788;2022-07-23T01:15:56;17.60;99.90
9103;DHT22;4587;51.434;6.788;2022-07-23T01:18:21;17.60;99.90
9103;DHT22;4587;51.434;6.788;2022-07-23T01:20:47;17.60;99.90
9103;DHT22;4587;51.434;6.788;2022-07-23T01:23:13;17.60;99.90
9103;DHT22;4587;51.434;6.788;2022-07-23T01:25:48;17.60;99.90
9103;DHT22;4587;51.434;6.788;2022-07-23T01:28:13;17.60;99.90
9103;DHT22;4587;51.434;6.788;2022-07-23T01:30:39;17.60;99.90
9103;DHT22;4587;51.434;6.788;2022-07-23T01:33:04;17.60;99.90
9103;DHT22;4587;51.434;6.788;2022-07-23T01:35:30;17.60;99.90
9103;DHT22;4587;51.434;6.788;2022-07-23T01:37:56;17.60;99.90
9103;DHT22;4587;51.434;6.788;2022-07-23T01:40:21;17.60;99.90
9103;DHT22;4587;51.434;6.788;2022-07-23T01:42:47;17.60;99.90
9103;DHT22;4587;51.434;6.788;2022-07-23T01:45:13;17.50;99.90
9103;DHT22;4587;51.434;6.788;2022-07-23T01:47:38;17.50;99.90
9103;DHT22;4587;51.434;6.788;2022-07-23T01:50:04;17.50;99.90
9103;DHT22;4587;51.434;6.788;2022-07-23T01:52:30;17.50;99.90
9103;DHT22;4587;51.434;6.788;2022-07-23T01:54:55;17.50;99.90
9103;DHT22;4587;51.434;6.788;2022-07-23T01:57:21;17.50;99.90
9103;DHT22;4587;51.434;6.788;2022-07-23T01:59:46;17.50;99.90
9103;DHT22;4587;51.434;6.788;2022-07-23T02:02:12;17.50;99.90
9103;DHT22;4587;51.434;6.788;2022-07-23T02:04:37;17.40;99.90
9103;DHT22;4587;51.434;6.788;2022-07-23T02:07:04;17.40;99.90
9103;DHT22;4587;51.434;6.788;2022-07-23T02:09:30;17.40;99.90
9103;DHT22;4587;51.434;6.788;2022-07-23T02:11:56;17.30;99.90
9103;DHT22;4587;51.434;6.788;2022-07-23T02:14:22;17.30;99.90
9103;DHT22;4587;51.434;6.788;2022-07-23T02:16:47;17.30;99.90
9103;DHT22;4587;51.434;6.788;2022-07-23T02:19:13;17.20;99.90
9103;DHT22;4587;51.434;6.788;2022-07-23T02:21:38;17.20;99.90
9103;DHT22;4587;51.434;6.788;2022-07-23T02:24:04;17.20;99.90
9103;DHT22;4587;51.434;6.788;2022-07-23T02:26:30;17.20;99.90
9103;DHT22;4587;51.434;6.788;2022-07-23T02:29:00;17.10;99.90
9103;DHT22;4587;51.434;6.788;2022-07-23T02:31:26;17.00;99.90
9103;DHT22;4587;51.434;6.788;2022-07-23T02:33:51;17.00;99.90
9103;DHT22;4587;51.434;6.788;2022-07-23T02:36:17;17.00;99.90
9103;DHT22;4587;51.434;6.788;2022-07-23T02:38:42;17.00;99.90
9103;DHT22;4587;51.434;6.788;2022-07-23T02:41:08;17.00;99.90
9103;DHT22;4587;51.434;6.788;2022-07-23T02:43:34;17.00;99.90
9103;DHT22;4587;51.434;6.788;2022-07-23T02:45:59;17.00;99.90
9103;DHT22;4587;51.434;6.788;2022-07-23T02:48:26;17.00;99.90
9103;DHT22;4587;51.434;6.788;2022-07-23T02:50:51;17.00;99.90
9103;DHT22;4587;51.434;6.788;2022-07-23T02:53:18;17.00;99.90
9103;DHT22;4587;51.434;6.788;2022-07-23T02:55:43;17.00;99.90
9103;DHT22;4587;51.434;6.788;2022-07-23T02:58:09;17.00;99.90
9103;DHT22;4587;51.434;6.788;2022-07-23T03:00:34;16.90;99.90
9103;DHT22;4587;51.434;6.788;2022-07-23T03:03:00;16.90;99.90
9103;DHT22;4587;51.434;6.788;2022-07-23T03:05:25;16.90;99.90
9103;DHT22;4587;51.434;6.788;2022-07-23T03:07:51;16.80;99.90
9103;DHT22;4587;51.434;6.788;2022-07-23T03:10:17;16.70;99.90
9103;DHT22;4587;51.434;6.788;2022-07-23T03:12:42;16.80;99.90
9103;DHT22;4587;51.434;6.788;2022-07-23T03:15:08;16.70;99.90
9103;DHT22;4587;51.434;6.788;2022-07-23T03:17:34;16.60;99.90
9103;DHT22;4587;51.434;6.788;2022-07-23T03:20:00;16.70;99.90
9103;DHT22;4587;51.434;6.788;2022-07-23T03:22:25;16.60;99.90
9103;DHT22;4587;51.434;6.788;2022-07-23T03:24:51;16.60;99.90
9103;DHT22;4587;51.434;6.788;2022-07-23T03:27:20;16.50;99.90
9103;DHT22;4587;51.434;6.788;2022-07-23T03:29:46;16.50;99.90
9103;DHT22;4587;51.434;6.788;2022-07-23T03:32:11;16.40;99.90
9103;DHT22;4587;51.434;6.788;2022-07-23T03:34:37;16.40;99.90
9103;DHT22;4587;51.434;6.788;2022-07-23T03:37:03;16.40;99.90
9103;DHT22;4587;51.434;6.788;2022-07-23T03:39:29;16.40;99.90
9103;DHT22;4587;51.434;6.788;2022-07-23T03:41:54;16.40;99.90
9103;DHT22;4587;51.434;6.788;2022-07-23T03:44:20;16.40;99.90
9103;DHT22;4587;51.434;6.788;2022-07-23T03:46:45;16.40;99.90
9103;DHT22;4587;51.434;6.788;2022-07-23T03:49:11;16.40;99.90
9103;DHT22;4587;51.434;6.788;2022-07-23T03:51:36;16.30;99.90
9103;DHT22;4587;51.434;6.788;2022-07-23T03:54:02;16.30;99.90
9103;DHT22;4587;51.434;6.788;2022-07-23T03:56:28;16.30;99.90
9103;DHT22;4587;51.434;6.788;2022-07-23T03:58:53;16.30;99.90
9103;DHT22;4587;51.434;6.788;2022-07-23T04:01:19;16.30;99.90
9103;DHT22;4587;51.434;6.788;2022-07-23T04:03:44;16.30;99.90
9103;DHT22;4587;51.434;6.788;2022-07-23T04:06:12;16.30;99.90
9103;DHT22;4587;51.434;6.788;2022-07-23T04:08:37;16.30;99.90
9103;DHT22;4587;51.434;6.788;2022-07-23T04:11:03;16.30;99.90
9103;DHT22;4587;51.434;6.788;2022-07-23T04:13:29;16.30;99.90
9103;DHT22;4587;51.434;6.788;2022-07-23T04:15:55;16.30;99.90
9103;DHT22;4587;51.434;6.788;2022-07-23T04:18:21;16.30;99.90
9103;DHT22;4587;51.434;6.788;2022-07-23T04:20:52;16.30;99.90
9103;DHT22;4587;51.434;6.788;2022-07-23T04:23:18;16.30;99.90
9103;DHT22;4587;51.434;6.788;2022-07-23T04:25:44;16.30;99.90
9103;DHT22;4587;51.434;6.788;2022-07-23T04:28:09;16.30;99.90
9103;DHT22;4587;51.434;6.788;2022-07-23T04:30:35;16.30;99.90
9103;DHT22;4587;51.434;6.788;2022-07-23T04:33:01;16.30;99.90
9103;DHT22;4587;51.434;6.788;2022-07-23T04:35:27;16.30;99.90
9103;DHT22;4587;51.434;6.788;2022-07-23T04:37:52;16.40;99.90
9103;DHT22;4587;51.434;6.788;2022-07-23T04:40:18;16.40;99.90
9103;DHT22;4587;51.434;6.788;2022-07-23T04:42:44;16.40;99.90
9103;DHT22;4587;51.434;6.788;2022-07-23T04:45:09;16.50;99.90
9103;DHT22;4587;51.434;6.788;2022-07-23T04:47:35;16.50;99.90
9103;DHT22;4587;51.434;6.788;2022-07-23T04:50:01;16.50;99.90
9103;DHT22;4587;51.434;6.788;2022-07-23T04:52:26;16.50;99.90
9103;DHT22;4587;51.434;6.788;2022-07-23T04:54:52;16.60;99.90
9103;DHT22;4587;51.434;6.788;2022-07-23T04:57:17;16.60;99.90
9103;DHT22;4587;51.434;6.788;2022-07-23T04:59:43;16.60;99.90
9103;DHT22;4587;51.434;6.788;2022-07-23T05:02:08;16.70;99.90
9103;DHT22;4587;51.434;6.788;2022-07-23T05:04:34;16.80;99.90
9103;DHT22;4587;51.434;6.788;2022-07-23T05:07:00;16.80;99.90
9103;DHT22;4587;51.434;6.788;2022-07-23T05:09:25;16.80;99.90
9103;DHT22;4587;51.434;6.788;2022-07-23T05:11:51;16.90;99.90
9103;DHT22;4587;51.434;6.788;2022-07-23T05:14:17;16.90;99.90
9103;DHT22;4587;51.434;6.788;2022-07-23T05:16:42;16.90;99.90
9103;DHT22;4587;51.434;6.788;2022-07-23T05:19:08;16.90;99.90
9103;DHT22;4587;51.434;6.788;2022-07-23T05:21:33;17.00;99.90
9103;DHT22;4587;51.434;6.788;2022-07-23T05:23:59;17.00;99.90
9103;DHT22;4587;51.434;6.788;2022-07-23T05:26:25;17.10;99.90
9103;DHT22;4587;51.434;6.788;2022-07-23T05:28:51;17.20;99.90
9103;DHT22;4587;51.434;6.788;2022-07-23T05:31:16;17.40;99.90
9103;DHT22;4587;51.434;6.788;2022-07-23T05:33:42;17.60;99.90
9103;DHT22;4587;51.434;6.788;2022-07-23T05:36:08;17.70;99.90
9103;DHT22;4587;51.434;6.788;2022-07-23T05:38:34;17.80;99.90
9103;DHT22;4587;51.434;6.788;2022-07-23T05:41:00;17.90;99.90
9103;DHT22;4587;51.434;6.788;2022-07-23T05:43:26;18.10;99.90
9103;DHT22;4587;51.434;6.788;2022-07-23T05:45:52;18.40;99.90
9103;DHT22;4587;51.434;6.788;2022-07-23T05:48:18;18.70;99.90
9103;DHT22;4587;51.434;6.788;2022-07-23T05:50:43;19.20;99.90
9103;DHT22;4587;51.434;6.788;2022-07-23T05:53:09;19.30;99.90
9103;DHT22;4587;51.434;6.788;2022-07-23T05:55:34;19.10;99.90
9103;DHT22;4587;51.434;6.788;2022-07-23T05:58:00;19.00;99.90
9103;DHT22;4587;51.434;6.788;2022-07-23T06:00:27;18.80;99.90
9103;DHT22;4587;51.434;6.788;2022-07-23T06:02:53;18.70;99.90
9103;DHT22;4587;51.434;6.788;2022-07-23T06:05:18;18.80;99.90
9103;DHT22;4587;51.434;6.788;2022-07-23T06:07:44;18.80;99.90
9103;DHT22;4587;51.434;6.788;2022-07-23T06:10:09;18.90;99.90
9103;DHT22;4587;51.434;6.788;2022-07-23T06:12:35;19.00;99.90
9103;DHT22;4587;51.434;6.788;2022-07-23T06:15:02;19.00;99.90
9103;DHT22;4587;51.434;6.788;2022-07-23T06:17:28;19.10;99.90
9103;DHT22;4587;51.434;6.788;2022-07-23T06:19:54;19.20;99.90
9103;DHT22;4587;51.434;6.788;2022-07-23T06:22:20;19.40;99.90
9103;DHT22;4587;51.434;6.788;2022-07-23T06:24:46;19.40;99.90
9103;DHT22;4587;51.434;6.788;2022-07-23T06:27:12;19.40;99.90
9103;DHT22;4587;51.434;6.788;2022-07-23T06:29:38;19.50;99.90
9103;DHT22;4587;51.434;6.788;2022-07-23T06:32:06;19.60;99.90
9103;DHT22;4587;51.434;6.788;2022-07-23T06:34:31;19.60;99.90
9103;DHT22;4587;51.434;6.788;2022-07-23T06:36:57;19.80;99.90
9103;DHT22;4587;51.434;6.788;2022-07-23T06:39:23;20.40;99.90
9103;DHT22;4587;51.434;6.788;2022-07-23T06:41:48;20.60;99.90
9103;DHT22;4587;51.434;6.788;2022-07-23T06:44:14;20.70;99.90
9103;DHT22;4587;51.434;6.788;2022-07-23T06:46:39;20.60;99.90
9103;DHT22;4587;51.434;6.788;2022-07-23T06:49:05;21.10;99.90
9103;DHT22;4587;51.434;6.788;2022-07-23T06:51:31;22.50;99.90
9103;DHT22;4587;51.434;6.788;2022-07-23T06:53:56;24.20;99.90
9103;DHT22;4587;51.434;6.788;2022-07-23T06:56:22;25.50;99.90
9103;DHT22;4587;51.434;6.788;2022-07-23T06:58:48;26.60;99.90
9103;DHT22;4587;51.434;6.788;2022-07-23T07:01:13;27.30;99.90
9103;DHT22;4587;51.434;6.788;2022-07-23T07:03:39;28.20;99.90
9103;DHT22;4587;51.434;6.788;2022-07-23T07:06:04;28.80;99.90
9103;DHT22;4587;51.434;6.788;2022-07-23T07:08:30;29.10;99.90
9103;DHT22;4587;51.434;6.788;2022-07-23T07:10:55;29.90;99.90
9103;DHT22;4587;51.434;6.788;2022-07-23T07:13:21;30.40;97.40
9103;DHT22;4587;51.434;6.788;2022-07-23T07:15:47;30.80;96.40
9103;DHT22;4587;51.434;6.788;2022-07-23T07:18:12;30.20;95.50
9103;DHT22;4587;51.434;6.788;2022-07-23T07:20:38;30.40;98.20
9103;DHT22;4587;51.434;6.788;2022-07-23T07:23:03;30.90;95.80
9103;DHT22;4587;51.434;6.788;2022-07-23T07:25:29;31.20;93.70
9103;DHT22;4587;51.434;6.788;2022-07-23T07:27:55;30.90;94.10
9103;DHT22;4587;51.434;6.788;2022-07-23T07:30:20;31.20;93.50
9103;DHT22;4587;51.434;6.788;2022-07-23T07:32:46;31.50;93.20
9103;DHT22;4587;51.434;6.788;2022-07-23T07:35:12;31.60;90.40
9103;DHT22;4587;51.434;6.788;2022-07-23T07:37:37;32.00;88.10
9103;DHT22;4587;51.434;6.788;2022-07-23T07:40:04;32.70;87.40
9103;DHT22;4587;51.434;6.788;2022-07-23T07:42:30;33.30;81.90
9103;DHT22;4587;51.434;6.788;2022-07-23T07:44:57;32.60;82.10
9103;DHT22;4587;51.434;6.788;2022-07-23T07:47:23;32.30;81.70
9103;DHT22;4587;51.434;6.788;2022-07-23T07:49:49;32.90;80.90
9103;DHT22;4587;51.434;6.788;2022-07-23T07:52:14;33.30;77.10
9103;DHT22;4587;51.434;6.788;2022-07-23T07:54:40;33.00;78.30
9103;DHT22;4587;51.434;6.788;2022-07-23T07:57:06;33.50;76.00
9103;DHT22;4587;51.434;6.788;2022-07-23T07:59:31;34.10;73.20
9103;DHT22;4587;51.434;6.788;2022-07-23T08:01:57;33.40;73.30
9103;DHT22;4587;51.434;6.788;2022-07-23T08:04:23;33.50;74.50
9103;DHT22;4587;51.434;6.788;2022-07-23T08:06:48;33.70;72.20
9103;DHT22;4587;51.434;6.788;2022-07-23T08:09:14;33.30;72.60
9103;DHT22;4587;51.434;6.788;2022-07-23T08:11:39;32.20;73.60
9103;DHT22;4587;51.434;6.788;2022-07-23T08:14:05;32.10;77.00
9103;DHT22;4587;51.434;6.788;2022-07-23T08:16:31;31.50;83.50
9103;DHT22;4587;51.434;6.788;2022-07-23T08:18:56;31.00;83.20
9103;DHT22;4587;51.434;6.788;2022-07-23T08:21:22;30.30;88.60
9103;DHT22;4587;51.434;6.788;2022-07-23T08:23:48;29.50;93.00
9103;DHT22;4587;51.434;6.788;2022-07-23T08:26:13;28.90;93.70
9103;DHT22;4587;51.434;6.788;2022-07-23T08:28:39;28.20;94.10
9103;DHT22;4587;51.434;6.788;2022-07-23T08:31:04;27.70;94.10
9103;DHT22;4587;51.434;6.788;2022-07-23T08:33:31;27.20;98.00
9103;DHT22;4587;51.434;6.788;2022-07-23T08:35:57;27.00;98.30
9103;DHT22;4587;51.434;6.788;2022-07-23T08:38:23;26.80;98.30
9103;DHT22;4587;51.434;6.788;2022-07-23T08:40:53;26.50;99.90
9103;DHT22;4587;51.434;6.788;2022-07-23T08:43:21;26.50;99.90
9103;DHT22;4587;51.434;6.788;2022-07-23T08:45:52;26.50;98.60
9103;DHT22;4587;51.434;6.788;2022-07-23T08:48:20;26.30;99.20
9103;DHT22;4587;51.434;6.788;2022-07-23T08:50:48;26.30;99.90
9103;DHT22;4587;51.434;6.788;2022-07-23T08:53:14;26.10;99.90
9103;DHT22;4587;51.434;6.788;2022-07-23T08:55:44;26.20;99.90
9103;DHT22;4587;51.434;6.788;2022-07-23T08:58:10;26.10;99.90
9103;DHT22;4587;51.434;6.788;2022-07-23T09:00:35;26.10;99.90
9103;DHT22;4587;51.434;6.788;2022-07-23T09:03:01;26.10;99.40
9103;DHT22;4587;51.434;6.788;2022-07-23T09:05:27;26.10;99.90
9103;DHT22;4587;51.434;6.788;2022-07-23T09:10:57;25.90;99.90
9103;DHT22;4587;51.434;6.788;2022-07-23T09:13:41;25.80;99.90
9103;DHT22;4587;51.434;6.788;2022-07-23T09:16:18;25.90;99.90
9103;DHT22;4587;51.434;6.788;2022-07-23T09:18:48;25.90;99.90
9103;DHT22;4587;51.434;6.788;2022-07-23T09:21:23;26.10;99.90
9103;DHT22;4587;51.434;6.788;2022-07-23T09:24:15;26.20;99.90
9103;DHT22;4587;51.434;6.788;2022-07-23T09:26:43;26.20;99.90
9103;DHT22;4587;51.434;6.788;2022-07-23T09:29:21;26.20;99.90
9103;DHT22;4587;51.434;6.788;2022-07-23T09:32:01;26.10;99.90
9103;DHT22;4587;51.434;6.788;2022-07-23T09:34:32;26.00;98.70
9103;DHT22;4587;51.434;6.788;2022-07-23T09:37:12;25.90;99.90
9103;DHT22;4587;51.434;6.788;2022-07-23T09:39:39;26.00;99.90
9103;DHT22;4587;51.434;6.788;2022-07-23T09:44:44;26.10;99.90
9103;DHT22;4587;51.434;6.788;2022-07-23T09:47:10;26.10;99.90
9103;DHT22;4587;51.434;6.788;2022-07-23T09:49:35;26.10;99.40
9103;DHT22;4587;51.434;6.788;2022-07-23T09:52:01;26.20;99.80
9103;DHT22;4587;51.434;6.788;2022-07-23T09:54:35;26.20;99.20
9103;DHT22;4587;51.434;6.788;2022-07-23T09:57:07;26.20;99.20
9103;DHT22;4587;51.434;6.788;2022-07-23T09:59:36;26.20;99.00
9103;DHT22;4587;51.434;6.788;2022-07-23T10:02:03;26.20;97.70
9103;DHT22;4587;51.434;6.788;2022-07-23T10:04:31;26.20;97.60
9103;DHT22;4587;51.434;6.788;2022-07-23T10:06:59;26.00;96.40
9103;DHT22;4587;51.434;6.788;2022-07-23T10:09:36;25.70;98.50
9103;DHT22;4587;51.434;6.788;2022-07-23T10:12:13;25.70;98.70
9103;DHT22;4587;51.434;6.788;2022-07-23T10:14:42;25.70;99.10
9103;DHT22;4587;51.434;6.788;2022-07-23T10:17:08;25.80;99.90
9103;DHT22;4587;51.434;6.788;2022-07-23T10:19:35;26.00;99.90
9103;DHT22;4587;51.434;6.788;2022-07-23T10:22:08;26.10;99.90
9103;DHT22;4587;51.434;6.788;2022-07-23T10:29:51;26.20;97.40
9103;DHT22;4587;51.434;6.788;2022-07-23T10:35:10;26.10;98.00
9103;DHT22;4587;51.434;6.788;2022-07-23T10:37:40;26.00;97.40
9103;DHT22;4587;51.434;6.788;2022-07-23T10:42:48;26.00;96.90
9103;DHT22;4587;51.434;6.788;2022-07-23T10:45:28;25.90;97.30
9103;DHT22;4587;51.434;6.788;2022-07-23T10:47:55;26.00;98.90
9103;DHT22;4587;51.434;6.788;2022-07-23T10:50:36;26.20;98.70
9103;DHT22;4587;51.434;6.788;2022-07-23T10:53:13;26.30;98.20
9103;DHT22;4587;51.434;6.788;2022-07-23T10:55:51;26.20;97.40
9103;DHT22;4587;51.434;6.788;2022-07-23T10:58:20;26.20;97.90
9103;DHT22;4587;51.434;6.788;2022-07-23T11:00:45;26.20;98.10
9103;DHT22;4587;51.434;6.788;2022-07-23T11:03:32;26.20;98.20
9103;DHT22;4587;51.434;6.788;2022-07-23T11:06:01;26.20;97.60
9103;DHT22;4587;51.434;6.788;2022-07-23T11:08:26;26.20;98.70
9103;DHT22;4587;51.434;6.788;2022-07-23T11:13:41;26.40;99.00
9103;DHT22;4587;51.434;6.788;2022-07-23T11:16:41;26.40;96.50
9103;DHT22;4587;51.434;6.788;2022-07-23T11:19:11;26.30;95.60
9103;DHT22;4587;51.434;6.788;2022-07-23T11:21:40;26.10;95.20
9103;DHT22;4587;51.434;6.788;2022-07-23T11:24:12;26.00;97.20
9103;DHT22;4587;51.434;6.788;2022-07-23T11:26:46;26.00;96.40
9103;DHT22;4587;51.434;6.788;2022-07-23T11:32:03;26.20;97.50
9103;DHT22;4587;51.434;6.788;2022-07-23T11:36:56;26.40;95.90
9103;DHT22;4587;51.434;6.788;2022-07-23T11:39:25;26.40;96.00
9103;DHT22;4587;51.434;6.788;2022-07-23T11:41:51;26.50;95.50
9103;DHT22;4587;51.434;6.788;2022-07-23T11:44:27;26.40;95.00
9103;DHT22;4587;51.434;6.788;2022-07-23T11:47:10;26.40;95.10
9103;DHT22;4587;51.434;6.788;2022-07-23T11:49:57;26.50;96.00
9103;DHT22;4587;51.434;6.788;2022-07-23T11:52:34;26.40;94.60
9103;DHT22;4587;51.434;6.788;2022-07-23T11:55:04;26.40;96.30
9103;DHT22;4587;51.434;6.788;2022-07-23T11:57:36;26.50;95.60
9103;DHT22;4587;51.434;6.788;2022-07-23T12:02:37;26.30;93.20
9103;DHT22;4587;51.434;6.788;2022-07-23T12:05:04;26.20;93.50
9103;DHT22;4587;51.434;6.788;2022-07-23T12:07:42;26.20;95.20
9103;DHT22;4587;51.434;6.788;2022-07-23T12:10:11;26.20;94.90
9103;DHT22;4587;51.434;6.788;2022-07-23T12:12:45;26.20;94.20
9103;DHT22;4587;51.434;6.788;2022-07-23T12:15:13;26.20;95.20
9103;DHT22;4587;51.434;6.788;2022-07-23T12:17:41;26.20;93.70
9103;DHT22;4587;51.434;6.788;2022-07-23T12:20:09;26.20;94.90
9103;DHT22;4587;51.434;6.788;2022-07-23T12:22:39;26.10;92.00
9103;DHT22;4587;51.434;6.788;2022-07-23T12:25:17;26.10;92.80
9103;DHT22;4587;51.434;6.788;2022-07-23T12:27:43;26.10;92.60
9103;DHT22;4587;51.434;6.788;2022-07-23T12:30:24;26.10;95.80
9103;DHT22;4587;51.434;6.788;2022-07-23T12:32:53;26.10;93.10
9103;DHT22;4587;51.434;6.788;2022-07-23T12:35:20;26.20;93.00
9103;DHT22;4587;51.434;6.788;2022-07-23T12:37:48;26.20;94.10
9103;DHT22;4587;51.434;6.788;2022-07-23T12:40:37;26.30;93.30
9103;DHT22;4587;51.434;6.788;2022-07-23T12:43:08;26.40;93.80
9103;DHT22;4587;51.434;6.788;2022-07-23T12:45:51;26.40;92.40
9103;DHT22;4587;51.434;6.788;2022-07-23T12:48:27;26.40;93.90
9103;DHT22;4587;51.434;6.788;2022-07-23T12:51:01;26.50;92.60
9103;DHT22;4587;51.434;6.788;2022-07-23T12:56:02;26.40;92.30
9103;DHT22;4587;51.434;6.788;2022-07-23T12:58:49;26.40;90.40
9103;DHT22;4587;51.434;6.788;2022-07-23T13:06:30;26.30;93.90
9103;DHT22;4587;51.434;6.788;2022-07-23T13:08:57;26.30;93.60
9103;DHT22;4587;51.434;6.788;2022-07-23T13:11:23;26.40;93.50
9103;DHT22;4587;51.434;6.788;2022-07-23T13:13:49;26.50;92.60
9103;DHT22;4587;51.434;6.788;2022-07-23T13:16:15;26.50;91.30
9103;DHT22;4587;51.434;6.788;2022-07-23T13:18:41;26.20;89.10
9103;DHT22;4587;51.434;6.788;2022-07-23T13:21:06;26.10;90.60
9103;DHT22;4587;51.434;6.788;2022-07-23T13:23:32;26.10;90.90
9103;DHT22;4587;51.434;6.788;2022-07-23T13:25:58;26.10;91.90
9103;DHT22;4587;51.434;6.788;2022-07-23T13:28:23;26.20;91.70
9103;DHT22;4587;51.434;6.788;2022-07-23T13:30:50;26.20;91.70
9103;DHT22;4587;51.434;6.788;2022-07-23T13:33:22;26.10;91.70
9103;DHT22;4587;51.434;6.788;2022-07-23T13:35:48;26.10;91.70
9103;DHT22;4587;51.434;6.788;2022-07-23T13:38:14;26.10;92.40
9103;DHT22;4587;51.434;6.788;2022-07-23T13:40:42;26.20;91.60
9103;DHT22;4587;51.434;6.788;2022-07-23T13:43:09;26.20;91.50
9103;DHT22;4587;51.434;6.788;2022-07-23T13:45:35;26.20;93.10
9103;DHT22;4587;51.434;6.788;2022-07-23T13:48:01;26.20;92.40
9103;DHT22;4587;51.434;6.788;2022-07-23T13:50:27;26.20;92.50
9103;DHT22;4587;51.434;6.788;2022-07-23T13:52:53;26.20;92.30
9103;DHT22;4587;51.434;6.788;2022-07-23T13:55:18;26.20;93.30
9103;DHT22;4587;51.434;6.788;2022-07-23T13:57:44;26.30;93.80
9103;DHT22;4587;51.434;6.788;2022-07-23T14:00:11;26.30;93.70
9103;DHT22;4587;51.434;6.788;2022-07-23T14:02:38;26.30;92.60
9103;DHT22;4587;51.434;6.788;2022-07-23T14:05:06;26.40;92.10
9103;DHT22;4587;51.434;6.788;2022-07-23T14:07:33;26.30;92.20
9103;DHT22;4587;51.434;6.788;2022-07-23T14:09:58;26.30;93.10
9103;DHT22;4587;51.434;6.788;2022-07-23T14:12:24;26.30;91.50
9103;DHT22;4587;51.434;6.788;2022-07-23T14:14:50;26.10;91.30
9103;DHT22;4587;51.434;6.788;2022-07-23T14:17:16;26.10;91.90
9103;DHT22;4587;51.434;6.788;2022-07-23T14:19:41;26.20;92.40
9103;DHT22;4587;51.434;6.788;2022-07-23T14:22:07;26.30;94.10
9103;DHT22;4587;51.434;6.788;2022-07-23T14:24:33;26.30;93.30
9103;DHT22;4587;51.434;6.788;2022-07-23T14:27:03;26.30;92.60
9103;DHT22;4587;51.434;6.788;2022-07-23T14:29:29;26.30;93.10
9103;DHT22;4587;51.434;6.788;2022-07-23T14:31:55;26.30;93.20
9103;DHT22;4587;51.434;6.788;2022-07-23T14:34:20;26.40;93.30
9103;DHT22;4587;51.434;6.788;2022-07-23T14:36:46;26.40;93.00
9103;DHT22;4587;51.434;6.788;2022-07-23T14:39:12;26.40;93.10
9103;DHT22;4587;51.434;6.788;2022-07-23T14:41:38;26.50;92.90
9103;DHT22;4587;51.434;6.788;2022-07-23T14:44:04;26.50;92.10
9103;DHT22;4587;51.434;6.788;2022-07-23T14:46:30;26.40;92.10
9103;DHT22;4587;51.434;6.788;2022-07-23T14:48:55;26.40;92.10
9103;DHT22;4587;51.434;6.788;2022-07-23T14:51:21;26.40;92.60
9103;DHT22;4587;51.434;6.788;2022-07-23T14:53:47;26.50;92.10
9103;DHT22;4587;51.434;6.788;2022-07-23T14:56:13;26.40;92.10
9103;DHT22;4587;51.434;6.788;2022-07-23T14:58:41;26.40;93.00
9103;DHT22;4587;51.434;6.788;2022-07-23T15:01:08;26.50;93.70
9103;DHT22;4587;51.434;6.788;2022-07-23T15:03:33;26.50;93.60
9103;DHT22;4587;51.434;6.788;2022-07-23T15:06:00;26.50;92.60
9103;DHT22;4587;51.434;6.788;2022-07-23T15:08:25;26.50;92.60
9103;DHT22;4587;51.434;6.788;2022-07-23T15:10:51;26.40;93.20
9103;DHT22;4587;51.434;6.788;2022-07-23T15:13:17;26.40;93.10
9103;DHT22;4587;51.434;6.788;2022-07-23T15:15:42;26.50;94.20
9103;DHT22;4587;51.434;6.788;2022-07-23T15:18:08;26.50;93.30
9103;DHT22;4587;51.434;6.788;2022-07-23T15:20:34;26.50;94.00
9103;DHT22;4587;51.434;6.788;2022-07-23T15:22:59;26.60;93.70
9103;DHT22;4587;51.434;6.788;2022-07-23T15:25:25;26.60;93.50
9103;DHT22;4587;51.434;6.788;2022-07-23T15:27:50;26.70;92.70
9103;DHT22;4587;51.434;6.788;2022-07-23T15:30:16;26.80;92.40
9103;DHT22;4587;51.434;6.788;2022-07-23T15:32:42;26.70;92.60
9103;DHT22;4587;51.434;6.788;2022-07-23T15:35:07;26.70;93.40
9103;DHT22;4587;51.434;6.788;2022-07-23T15:37:34;26.70;93.90
9103;DHT22;4587;51.434;6.788;2022-07-23T15:40:00;26.70;93.40
9103;DHT22;4587;51.434;6.788;2022-07-23T15:42:26;26.70;93.70
9103;DHT22;4587;51.434;6.788;2022-07-23T15:44:52;26.60;93.80
9103;DHT22;4587;51.434;6.788;2022-07-23T15:47:18;26.60;94.40
9103;DHT22;4587;51.434;6.788;2022-07-23T15:49:45;26.50;94.40
9103;DHT22;4587;51.434;6.788;2022-07-23T15:52:11;26.50;94.00
9103;DHT22;4587;51.434;6.788;2022-07-23T15:54:38;26.40;94.10
9103;DHT22;4587;51.434;6.788;2022-07-23T15:57:04;26.40;93.80
9103;DHT22;4587;51.434;6.788;2022-07-23T15:59:31;26.30;93.30
9103;DHT22;4587;51.434;6.788;2022-07-23T16:01:57;26.30;94.30
9103;DHT22;4587;51.434;6.788;2022-07-23T16:04:23;26.30;94.30
9103;DHT22;4587;51.434;6.788;2022-07-23T16:06:49;26.20;94.60
9103;DHT22;4587;51.434;6.788;2022-07-23T16:09:14;26.10;93.90
9103;DHT22;4587;51.434;6.788;2022-07-23T16:11:40;26.00;94.20
9103;DHT22;4587;51.434;6.788;2022-07-23T16:14:06;26.10;94.50
9103;DHT22;4587;51.434;6.788;2022-07-23T16:16:32;26.10;95.20
9103;DHT22;4587;51.434;6.788;2022-07-23T16:18:57;25.90;94.60
9103;DHT22;4587;51.434;6.788;2022-07-23T16:21:24;25.80;94.10
9103;DHT22;4587;51.434;6.788;2022-07-23T16:23:50;25.70;94.40
9103;DHT22;4587;51.434;6.788;2022-07-23T16:26:15;25.60;95.00
9103;DHT22;4587;51.434;6.788;2022-07-23T16:28:43;25.60;95.70
9103;DHT22;4587;51.434;6.788;2022-07-23T16:31:09;25.60;95.40
9103;DHT22;4587;51.434;6.788;2022-07-23T16:33:36;25.60;95.50
9103;DHT22;4587;51.434;6.788;2022-07-23T16:36:02;25.60;96.00